createdAt,value
2018-03-31T00:01:44.615Z,8.45
2018-03-31T00:04:11.000Z,9.07
2018-03-31T00:06:37.463Z,8.25
2018-03-31T00:09:03.845Z,8.73
2018-03-31T00:11:30.233Z,8.27
2018-03-31T00:13:56.660Z,9.48
2018-03-31T00:16:23.043Z,9.05
2018-03-31T00:18:49.530Z,9.07
2018-03-31T00:21:15.952Z,8.25
2018-03-31T00:23:42.335Z,8.60
2018-03-31T00:26:08.727Z,8.63
2018-03-31T00:28:35.184Z,9.52
2018-03-31T00:31:01.581Z,8.75
2018-03-31T00:33:28.029Z,9.43
2018-03-31T00:35:54.428Z,9.00
2018-03-31T00:38:20.821Z,10.10
2018-03-31T00:40:47.199Z,9.80
2018-03-31T00:43:13.599Z,9.77
2018-03-31T00:45:39.996Z,10.52
2018-03-31T00:48:06.428Z,10.48
2018-03-31T00:50:32.836Z,10.15
2018-03-31T00:52:59.220Z,8.85
2018-03-31T00:55:25.614Z,9.00
2018-03-31T00:57:52.025Z,9.77
2018-03-31T01:00:18.419Z,9.15
2018-03-31T01:02:44.804Z,10.07
2018-03-31T01:05:11.231Z,9.07
2018-03-31T01:07:37.620Z,9.02
2018-03-31T01:10:04.021Z,8.52
2018-03-31T01:12:30.424Z,8.45
2018-03-31T01:14:56.814Z,8.20
2018-03-31T01:17:23.229Z,9.50
2018-03-31T01:19:49.670Z,9.88
2018-03-31T01:22:16.124Z,8.77
2018-03-31T01:24:42.503Z,8.98
2018-03-31T01:27:08.964Z,8.98
2018-03-31T01:29:35.396Z,9.18
2018-03-31T01:32:01.780Z,9.23
2018-03-31T01:34:28.198Z,9.77
2018-03-31T01:36:54.597Z,8.88
2018-03-31T01:39:21.033Z,10.00
2018-03-31T01:41:47.432Z,8.90
2018-03-31T01:44:13.813Z,8.30
2018-03-31T01:46:40.192Z,8.52
2018-03-31T01:49:06.697Z,8.18
2018-03-31T01:51:33.084Z,8.98
2018-03-31T01:53:59.477Z,8.15
2018-03-31T01:56:25.875Z,8.40
2018-03-31T01:58:52.256Z,8.85
2018-03-31T02:01:18.732Z,8.38
2018-03-31T02:03:45.136Z,8.48
2018-03-31T02:06:11.608Z,7.95
2018-03-31T02:08:38.046Z,9.52
2018-03-31T02:11:04.482Z,8.32
2018-03-31T02:13:30.909Z,8.40
2018-03-31T02:15:57.346Z,8.32
2018-03-31T02:18:23.805Z,8.35
2018-03-31T02:20:50.202Z,8.65
2018-03-31T02:23:16.593Z,8.85
2018-03-31T02:25:42.984Z,7.87
2018-03-31T02:28:09.413Z,8.50
2018-03-31T02:30:35.854Z,8.20
2018-03-31T02:33:02.282Z,7.87
2018-03-31T02:35:28.712Z,8.13
2018-03-31T02:37:55.103Z,9.10
2018-03-31T02:40:21.508Z,7.62
2018-03-31T02:42:47.926Z,9.27
2018-03-31T02:45:14.317Z,8.45
2018-03-31T02:47:40.720Z,9.40
2018-03-31T02:50:07.144Z,9.32
2018-03-31T02:52:33.554Z,9.85
2018-03-31T02:54:59.990Z,9.43
2018-03-31T02:57:26.420Z,8.80
2018-03-31T02:59:52.808Z,8.27
2018-03-31T03:02:19.488Z,8.07
2018-03-31T03:04:45.876Z,9.35
2018-03-31T03:07:12.367Z,8.70
2018-03-31T03:09:38.822Z,7.45
2018-03-31T03:12:05.204Z,8.50
2018-03-31T03:14:31.589Z,8.13
2018-03-31T03:16:57.997Z,8.68
2018-03-31T03:19:24.458Z,7.72
2018-03-31T03:21:50.840Z,7.47
2018-03-31T03:24:17.241Z,7.60
2018-03-31T03:26:43.625Z,7.93
2018-03-31T03:29:10.008Z,9.90
2018-03-31T03:31:36.410Z,8.15
2018-03-31T03:34:02.789Z,8.15
2018-03-31T03:36:29.273Z,8.73
2018-03-31T03:38:55.701Z,8.75
2018-03-31T03:41:22.082Z,8.73
2018-03-31T03:43:48.469Z,8.43
2018-03-31T03:46:14.897Z,8.40
2018-03-31T03:48:41.337Z,8.75
2018-03-31T03:51:07.720Z,7.90
2018-03-31T03:53:34.126Z,7.93
2018-03-31T03:56:00.519Z,8.30
2018-03-31T03:58:26.963Z,8.70
2018-03-31T04:00:53.364Z,8.60
2018-03-31T04:03:19.744Z,8.27
2018-03-31T04:05:46.198Z,8.63
2018-03-31T04:08:12.596Z,7.53
2018-03-31T04:10:38.980Z,8.25
2018-03-31T04:13:05.365Z,8.65
2018-03-31T04:15:31.773Z,7.85
2018-03-31T04:17:58.232Z,10.40
2018-03-31T04:20:24.672Z,10.02
2018-03-31T04:22:51.081Z,9.43
2018-03-31T04:25:17.462Z,9.02
2018-03-31T04:27:43.840Z,9.88
2018-03-31T04:30:10.308Z,9.77
2018-03-31T04:32:36.749Z,10.98
2018-03-31T04:35:03.178Z,10.60
2018-03-31T04:37:29.592Z,10.75
2018-03-31T04:39:56.038Z,10.63
2018-03-31T04:42:22.428Z,11.55
2018-03-31T04:44:48.913Z,9.85
2018-03-31T04:47:15.320Z,9.98
2018-03-31T04:49:41.703Z,9.90
2018-03-31T04:52:08.122Z,9.07
2018-03-31T04:54:34.508Z,9.68
2018-03-31T04:57:00.893Z,8.77
2018-03-31T04:59:27.317Z,9.73
2018-03-31T05:01:53.713Z,9.98
2018-03-31T05:04:20.098Z,9.73
2018-03-31T05:06:46.506Z,11.30
2018-03-31T05:09:12.954Z,10.07
2018-03-31T05:11:39.331Z,9.60
2018-03-31T05:14:05.815Z,10.77
2018-03-31T05:16:32.209Z,11.70
2018-03-31T05:18:58.602Z,10.20
2018-03-31T05:21:25.125Z,11.63
2018-03-31T05:23:51.581Z,10.43
2018-03-31T05:26:17.989Z,10.43
2018-03-31T05:28:44.404Z,12.07
2018-03-31T05:31:10.793Z,11.98
2018-03-31T05:33:37.214Z,12.15
2018-03-31T05:36:03.724Z,12.15
2018-03-31T05:38:30.112Z,13.48
2018-03-31T05:40:56.592Z,12.95
2018-03-31T05:43:23.027Z,12.82
2018-03-31T05:45:49.473Z,13.30
2018-03-31T05:48:15.892Z,13.98
2018-03-31T05:50:42.292Z,13.93
2018-03-31T05:53:08.682Z,14.43
2018-03-31T05:55:35.101Z,15.73
2018-03-31T05:58:01.525Z,15.77
2018-03-31T06:00:27.959Z,15.18
2018-03-31T06:02:54.348Z,14.90
2018-03-31T06:05:20.833Z,13.77
2018-03-31T06:07:47.220Z,16.12
2018-03-31T06:10:13.617Z,16.23
2018-03-31T06:12:40.026Z,16.12
2018-03-31T06:15:06.464Z,17.45
2018-03-31T06:17:32.861Z,19.33
2018-03-31T06:19:59.265Z,21.60
2018-03-31T06:22:25.676Z,20.37
2018-03-31T06:24:52.066Z,23.83
2018-03-31T06:27:18.472Z,21.12
2018-03-31T06:29:44.855Z,26.50
2018-03-31T06:32:11.254Z,28.17
2018-03-31T06:34:37.653Z,23.48
2018-03-31T06:37:04.049Z,24.73
2018-03-31T06:39:30.513Z,21.35
2018-03-31T06:41:56.923Z,25.62
2018-03-31T06:44:23.372Z,23.00
2018-03-31T06:46:49.756Z,22.50
2018-03-31T06:49:16.162Z,23.62
2018-03-31T06:51:42.560Z,27.55
2018-03-31T06:54:08.956Z,21.00
2018-03-31T06:56:35.355Z,20.23
2018-03-31T06:59:01.748Z,20.40
2018-03-31T07:01:28.148Z,18.30
2018-03-31T07:03:54.641Z,18.33
2018-03-31T07:06:21.087Z,19.17
2018-03-31T07:08:47.481Z,19.87
2018-03-31T07:11:13.891Z,20.15
2018-03-31T07:13:40.285Z,19.05
2018-03-31T07:16:06.705Z,19.95
2018-03-31T07:18:33.117Z,20.58
2018-03-31T07:20:59.585Z,18.65
2018-03-31T07:23:26.008Z,18.60
2018-03-31T07:25:52.451Z,17.27
2018-03-31T07:28:18.836Z,17.98
2018-03-31T07:30:45.223Z,18.00
2018-03-31T07:33:11.633Z,16.45
2018-03-31T07:35:38.024Z,18.37
2018-03-31T07:38:04.416Z,16.12
2018-03-31T07:40:30.852Z,16.00
2018-03-31T07:42:57.293Z,16.08
2018-03-31T07:45:23.720Z,15.48
2018-03-31T07:47:50.133Z,15.45
2018-03-31T07:50:16.520Z,14.75
2018-03-31T07:52:43.025Z,14.27
2018-03-31T07:55:09.438Z,14.82
2018-03-31T07:57:35.897Z,14.85
2018-03-31T08:00:02.320Z,15.80
2018-03-31T08:02:28.764Z,14.68
2018-03-31T08:04:55.194Z,14.48
2018-03-31T08:07:21.584Z,14.15
2018-03-31T08:09:48.061Z,12.32
2018-03-31T08:12:14.462Z,12.75
2018-03-31T08:14:40.932Z,12.27
2018-03-31T08:17:07.361Z,13.30
2018-03-31T08:19:33.765Z,13.98
2018-03-31T08:22:00.167Z,12.48
2018-03-31T08:24:26.582Z,12.37
2018-03-31T08:26:52.981Z,11.18
2018-03-31T08:29:19.369Z,11.02
2018-03-31T08:31:45.776Z,11.88
2018-03-31T08:34:12.172Z,10.38
2018-03-31T08:36:38.556Z,10.75
2018-03-31T08:39:04.964Z,10.52
2018-03-31T08:41:31.361Z,10.93
2018-03-31T08:43:57.760Z,10.95
2018-03-31T08:46:24.274Z,11.57
2018-03-31T08:48:50.700Z,11.18
2018-03-31T08:51:17.133Z,11.27
2018-03-31T08:53:43.540Z,11.12
2018-03-31T08:56:10.006Z,10.60
2018-03-31T08:58:36.397Z,10.55
2018-03-31T09:01:02.879Z,10.45
2018-03-31T09:03:29.331Z,10.82
2018-03-31T09:05:55.711Z,10.93
2018-03-31T09:08:22.181Z,10.95
2018-03-31T09:10:48.577Z,10.75
2018-03-31T09:13:15.044Z,10.95
2018-03-31T09:15:41.443Z,10.90
2018-03-31T09:18:07.914Z,10.30
2018-03-31T09:20:34.302Z,9.82
2018-03-31T09:23:00.712Z,12.55
2018-03-31T09:25:27.213Z,12.15
2018-03-31T09:27:53.606Z,10.32
2018-03-31T09:30:20.094Z,12.55
2018-03-31T09:32:46.480Z,9.95
2018-03-31T09:35:12.864Z,10.77
2018-03-31T09:37:39.315Z,10.52
2018-03-31T09:40:05.716Z,9.68
2018-03-31T09:42:32.114Z,11.73
2018-03-31T09:44:58.599Z,10.18
2018-03-31T09:47:24.989Z,10.55
2018-03-31T09:49:51.381Z,10.30
2018-03-31T09:52:18.656Z,9.68
2018-03-31T09:54:45.145Z,10.82
2018-03-31T09:57:11.567Z,9.98
2018-03-31T09:59:38.007Z,9.65
2018-03-31T10:02:04.452Z,8.88
2018-03-31T10:04:30.848Z,10.23
2018-03-31T10:06:57.311Z,9.13
2018-03-31T10:09:23.696Z,10.82
2018-03-31T10:11:50.084Z,10.27
2018-03-31T10:14:16.485Z,9.52
2018-03-31T10:16:42.953Z,11.00
2018-03-31T10:19:09.383Z,11.75
2018-03-31T10:21:35.793Z,11.57
2018-03-31T10:24:02.190Z,11.25
2018-03-31T10:26:28.580Z,10.63
2018-03-31T10:28:54.985Z,10.38
2018-03-31T10:31:21.377Z,9.63
2018-03-31T10:33:47.785Z,10.52
2018-03-31T10:36:14.188Z,9.98
2018-03-31T10:38:40.582Z,8.98
2018-03-31T10:41:07.085Z,10.23
2018-03-31T10:43:33.499Z,9.52
2018-03-31T10:45:59.897Z,9.82
2018-03-31T10:48:26.280Z,9.63
2018-03-31T10:50:52.694Z,9.15
2018-03-31T10:53:19.179Z,10.48
2018-03-31T10:55:45.581Z,9.00
2018-03-31T10:58:12.019Z,9.93
2018-03-31T11:00:38.456Z,10.15
2018-03-31T11:03:04.849Z,9.82
2018-03-31T11:05:31.268Z,9.48
2018-03-31T11:07:57.682Z,10.30
2018-03-31T11:10:24.082Z,11.00
2018-03-31T11:12:50.542Z,11.32
2018-03-31T11:15:16.909Z,9.88
2018-03-31T11:17:43.394Z,11.63
2018-03-31T11:20:09.801Z,11.38
2018-03-31T11:22:36.329Z,13.57
2018-03-31T11:25:02.801Z,13.75
2018-03-31T11:27:29.363Z,12.85
2018-03-31T11:29:56.205Z,13.25
2018-03-31T11:32:22.597Z,12.48
2018-03-31T11:34:49.079Z,14.45
2018-03-31T11:37:16.224Z,14.60
2018-03-31T11:39:45.809Z,20.20
2018-03-31T11:42:12.400Z,14.23
2018-03-31T11:44:39.111Z,16.80
2018-03-31T11:47:06.168Z,12.70
2018-03-31T11:49:33.311Z,12.98
2018-03-31T11:52:01.136Z,14.10
2018-03-31T11:54:27.593Z,12.98
2018-03-31T11:56:54.080Z,16.75
2018-03-31T11:59:21.286Z,15.27
2018-03-31T12:01:48.043Z,19.80
2018-03-31T12:04:14.554Z,13.48
2018-03-31T12:06:40.949Z,20.02
2018-03-31T12:09:07.342Z,29.60
2018-03-31T12:11:33.782Z,46.33
2018-03-31T12:14:00.177Z,29.98
2018-03-31T12:16:26.728Z,17.20
2018-03-31T12:18:53.247Z,13.82
2018-03-31T12:21:19.786Z,15.30
2018-03-31T12:23:46.212Z,17.60
2018-03-31T12:26:12.620Z,13.25
2018-03-31T12:28:39.017Z,14.68
2018-03-31T12:31:05.427Z,14.35
2018-03-31T12:33:31.870Z,15.75
2018-03-31T12:35:58.306Z,26.40
2018-03-31T12:38:24.733Z,11.75
2018-03-31T12:40:51.136Z,11.38
2018-03-31T12:43:17.536Z,15.48
2018-03-31T12:45:43.965Z,11.25
2018-03-31T12:48:10.496Z,19.40
2018-03-31T12:50:36.882Z,20.48
2018-03-31T12:53:03.272Z,12.40
2018-03-31T12:55:29.676Z,12.23
2018-03-31T12:57:56.064Z,9.95
2018-03-31T13:00:22.458Z,19.90
2018-03-31T13:02:48.977Z,15.00
2018-03-31T13:05:15.402Z,11.27
2018-03-31T13:07:41.788Z,14.23
2018-03-31T13:10:08.216Z,11.70
2018-03-31T13:12:34.613Z,21.30
2018-03-31T13:15:01.008Z,12.30
2018-03-31T13:17:27.420Z,14.05
2018-03-31T13:19:54.141Z,11.35
2018-03-31T13:22:20.883Z,13.13
2018-03-31T13:24:47.625Z,18.40
2018-03-31T13:27:14.365Z,20.10
2018-03-31T13:29:41.060Z,13.18
2018-03-31T13:32:08.258Z,12.05
2018-03-31T13:34:35.221Z,18.35
2018-03-31T13:37:01.612Z,17.77
2018-03-31T13:39:28.058Z,22.20
2018-03-31T13:41:54.449Z,21.80
2018-03-31T13:44:20.914Z,14.90
2018-03-31T13:46:47.327Z,12.37
2018-03-31T13:49:13.715Z,11.82
2018-03-31T13:51:40.220Z,11.50
2018-03-31T13:54:06.653Z,9.50
2018-03-31T13:56:33.046Z,13.07
2018-03-31T13:58:59.547Z,11.90
2018-03-31T14:01:25.953Z,11.00
2018-03-31T14:03:52.394Z,12.13
2018-03-31T14:06:18.793Z,12.00
2018-03-31T14:08:45.284Z,21.50
2018-03-31T14:11:11.679Z,19.77
2018-03-31T14:13:38.124Z,20.67
2018-03-31T14:16:04.568Z,19.75
2018-03-31T14:18:30.960Z,15.32
2018-03-31T14:20:57.353Z,15.95
2018-03-31T14:23:23.767Z,17.65
2018-03-31T14:25:50.161Z,15.60
2018-03-31T14:28:16.626Z,12.30
2018-03-31T14:30:43.036Z,16.33
2018-03-31T14:33:09.532Z,13.50
2018-03-31T14:35:36.032Z,11.70
2018-03-31T14:38:02.441Z,11.35
2018-03-31T14:40:28.866Z,9.68
2018-03-31T14:42:55.336Z,16.00
2018-03-31T14:45:21.781Z,10.70
2018-03-31T14:47:48.208Z,13.68
2018-03-31T14:50:14.597Z,18.73
2018-03-31T14:52:41.005Z,13.65
2018-03-31T14:55:07.513Z,17.75
2018-03-31T14:57:33.904Z,17.17
2018-03-31T15:00:00.309Z,15.68
2018-03-31T15:02:26.695Z,18.92
2018-03-31T15:04:53.092Z,13.20
2018-03-31T15:07:19.502Z,12.82
2018-03-31T15:09:45.888Z,23.48
2018-03-31T15:12:12.348Z,16.58
2018-03-31T15:14:38.772Z,14.35
2018-03-31T15:17:05.219Z,16.67
2018-03-31T15:19:31.645Z,9.60
2018-03-31T15:21:58.061Z,11.07
2018-03-31T15:24:24.542Z,17.55
2018-03-31T15:26:51.076Z,10.65
2018-03-31T15:29:17.590Z,11.00
2018-03-31T15:31:43.981Z,10.27
2018-03-31T15:34:10.381Z,10.48
2018-03-31T15:36:36.779Z,12.98
2018-03-31T15:39:03.186Z,15.20
2018-03-31T15:41:29.574Z,10.57
2018-03-31T15:43:56.092Z,17.10
2018-03-31T15:46:22.529Z,14.35
2018-03-31T15:48:48.966Z,11.80
2018-03-31T15:51:15.374Z,9.70
2018-03-31T15:53:41.768Z,10.40
2018-03-31T15:56:08.268Z,10.55
2018-03-31T15:58:34.713Z,12.52
2018-03-31T16:01:01.143Z,9.90
2018-03-31T16:03:27.523Z,10.25
2018-03-31T16:05:54.009Z,10.00
2018-03-31T16:08:20.435Z,10.90
2018-03-31T16:10:46.870Z,12.05
2018-03-31T16:13:13.328Z,10.57
2018-03-31T16:15:39.728Z,10.60
2018-03-31T16:18:06.200Z,10.07
2018-03-31T16:20:32.589Z,10.55
2018-03-31T16:22:59.062Z,11.50
2018-03-31T16:25:25.457Z,10.25
2018-03-31T16:27:51.931Z,11.05
2018-03-31T16:30:18.319Z,10.90
2018-03-31T16:32:44.782Z,11.38
2018-03-31T16:35:11.217Z,10.07
2018-03-31T16:37:37.636Z,10.75
2018-03-31T16:40:04.081Z,10.48
2018-03-31T16:42:30.497Z,10.52
2018-03-31T16:44:56.944Z,10.77
2018-03-31T16:47:23.342Z,10.00
2018-03-31T16:49:49.744Z,10.02
2018-03-31T16:52:16.149Z,10.00
2018-03-31T16:54:42.542Z,10.75
2018-03-31T16:57:09.039Z,10.82
2018-03-31T16:59:35.429Z,10.63
2018-03-31T17:02:01.819Z,10.55
2018-03-31T17:04:28.238Z,10.80
2018-03-31T17:06:54.623Z,13.05
2018-03-31T17:09:21.021Z,12.07
2018-03-31T17:11:47.438Z,11.32
2018-03-31T17:14:13.849Z,9.95
2018-03-31T17:16:40.250Z,11.55
2018-03-31T17:19:06.712Z,10.60
2018-03-31T17:21:33.181Z,10.95
2018-03-31T17:23:59.589Z,11.98
2018-03-31T17:26:26.016Z,11.10
2018-03-31T17:28:52.444Z,10.82
2018-03-31T17:31:18.838Z,11.10
2018-03-31T17:33:45.250Z,11.48
2018-03-31T17:36:11.657Z,11.07
2018-03-31T17:38:38.049Z,11.45
2018-03-31T17:41:04.452Z,12.37
2018-03-31T17:43:30.840Z,11.25
2018-03-31T17:45:57.289Z,13.65
2018-03-31T17:48:23.707Z,12.02
2018-03-31T17:50:50.160Z,11.48
2018-03-31T17:53:16.588Z,10.35
2018-03-31T17:55:42.992Z,10.98
2018-03-31T17:58:09.486Z,11.48
2018-03-31T18:00:35.877Z,11.20
2018-03-31T18:03:02.286Z,11.32
2018-03-31T18:05:28.676Z,12.20
2018-03-31T18:07:55.073Z,12.30
2018-03-31T18:10:21.472Z,13.70
2018-03-31T18:12:47.956Z,13.52
2018-03-31T18:15:14.343Z,11.93
2018-03-31T18:17:40.748Z,12.00
2018-03-31T18:20:07.146Z,13.70
2018-03-31T18:22:33.533Z,12.40
2018-03-31T18:25:00.392Z,13.70
2018-03-31T18:27:26.878Z,14.10
2018-03-31T18:29:53.264Z,14.02
2018-03-31T18:32:19.767Z,14.02
2018-03-31T18:34:46.157Z,15.18
2018-03-31T18:37:12.612Z,14.60
2018-03-31T18:39:39.017Z,18.25
2018-03-31T18:42:05.409Z,20.02
2018-03-31T18:44:31.796Z,21.08
2018-03-31T18:46:58.272Z,22.40
2018-03-31T18:49:24.673Z,24.23
2018-03-31T18:51:51.108Z,21.67
2018-03-31T18:54:17.509Z,23.17
2018-03-31T18:56:43.980Z,21.55
2018-03-31T18:59:10.378Z,22.83
2018-03-31T19:01:36.779Z,21.50
2018-03-31T19:04:03.164Z,19.70
2018-03-31T19:06:29.628Z,17.10
2018-03-31T19:08:56.053Z,16.45
2018-03-31T19:11:22.441Z,15.88
2018-03-31T19:13:48.828Z,14.48
2018-03-31T19:16:15.224Z,14.18
2018-03-31T19:18:41.612Z,12.85
2018-03-31T19:21:08.044Z,14.00
2018-03-31T19:23:34.478Z,13.38
2018-03-31T19:26:00.873Z,13.43
2018-03-31T19:28:27.331Z,32.00
2018-03-31T19:30:53.749Z,24.40
2018-03-31T19:33:20.144Z,42.17
2018-03-31T19:35:52.160Z,17.90
2018-03-31T19:38:18.580Z,14.10
2018-03-31T19:40:45.030Z,17.45
2018-03-31T19:43:11.465Z,17.02
2018-03-31T19:45:37.883Z,17.00
2018-03-31T19:48:04.324Z,21.83
2018-03-31T19:50:30.764Z,24.92
2018-03-31T19:52:57.137Z,24.15
2018-03-31T19:55:23.532Z,27.13
2018-03-31T19:57:49.968Z,18.25
2018-03-31T20:00:16.391Z,15.85
2018-03-31T20:02:42.787Z,16.05
2018-03-31T20:05:09.172Z,16.48
2018-03-31T20:07:35.580Z,15.68
2018-03-31T20:10:02.034Z,22.25
2018-03-31T20:12:28.456Z,27.20
2018-03-31T20:14:54.896Z,29.95
2018-03-31T20:17:21.297Z,27.65
2018-03-31T20:19:47.701Z,26.83
2018-03-31T20:22:14.201Z,28.90
2018-03-31T20:24:40.601Z,23.55
2018-03-31T20:27:07.065Z,17.48
2018-03-31T20:29:33.528Z,14.73
2018-03-31T20:31:59.919Z,14.02
2018-03-31T20:34:26.304Z,17.77
2018-03-31T20:36:52.710Z,17.65
2018-03-31T20:39:19.109Z,18.52
2018-03-31T20:41:45.573Z,16.23
2018-03-31T20:44:11.976Z,15.35
2018-03-31T20:46:38.366Z,17.00
2018-03-31T20:49:04.773Z,29.15
2018-03-31T20:51:31.208Z,29.95
2018-03-31T20:53:57.645Z,26.27
2018-03-31T20:56:24.074Z,19.65
2018-03-31T20:58:50.476Z,17.70
2018-03-31T21:01:16.864Z,18.62
2018-03-31T21:03:43.259Z,17.62
2018-03-31T21:06:09.709Z,19.55
2018-03-31T21:08:36.100Z,18.90
2018-03-31T21:11:02.499Z,16.77
2018-03-31T21:13:28.917Z,17.87
2018-03-31T21:15:55.336Z,21.35
2018-03-31T21:18:21.733Z,21.20
2018-03-31T21:20:48.216Z,20.17
2018-03-31T21:23:14.651Z,21.27
2018-03-31T21:25:41.043Z,21.12
2018-03-31T21:28:07.512Z,21.08
2018-03-31T21:30:33.957Z,21.10
2018-03-31T21:33:00.385Z,19.83
2018-03-31T21:35:26.812Z,22.33
2018-03-31T21:37:53.211Z,18.77
2018-03-31T21:40:19.685Z,20.45
2018-03-31T21:42:46.124Z,21.30
2018-03-31T21:45:12.552Z,23.50
2018-03-31T21:47:38.988Z,20.40
2018-03-31T21:50:05.449Z,20.45
2018-03-31T21:52:31.853Z,21.62
2018-03-31T21:54:58.308Z,22.10
2018-03-31T21:57:24.825Z,19.73
2018-03-31T21:59:51.264Z,21.17
2018-03-31T22:02:17.702Z,18.77
2018-03-31T22:04:44.129Z,17.55
2018-03-31T22:07:10.566Z,21.15
2018-03-31T22:09:37.988Z,19.48
2018-03-31T22:12:04.464Z,19.00
2018-03-31T22:14:36.628Z,17.42
2018-03-31T22:17:03.065Z,18.05
2018-03-31T22:19:29.477Z,19.42
2018-03-31T22:21:55.873Z,19.40
2018-03-31T22:24:22.356Z,19.42
2018-03-31T22:26:48.768Z,21.37
2018-03-31T22:29:15.159Z,18.67
2018-03-31T22:31:41.553Z,20.10
2018-03-31T22:34:07.960Z,21.95
2018-03-31T22:36:34.437Z,23.55
2018-03-31T22:39:00.820Z,20.52
2018-03-31T22:41:27.230Z,22.30
2018-03-31T22:43:53.643Z,25.27
2018-03-31T22:46:20.061Z,22.58
2018-03-31T22:48:46.473Z,20.55
2018-03-31T22:51:12.873Z,20.42
2018-03-31T22:53:39.261Z,21.33
2018-03-31T22:56:05.674Z,21.27
2018-03-31T22:58:32.162Z,18.50
2018-03-31T23:00:58.553Z,19.48
2018-03-31T23:03:24.979Z,22.50
2018-03-31T23:05:51.435Z,21.02
2018-03-31T23:08:17.867Z,19.40
2018-03-31T23:10:44.271Z,22.13
2018-03-31T23:13:10.748Z,19.70
2018-03-31T23:15:37.167Z,19.02
2018-03-31T23:18:03.613Z,21.05
2018-03-31T23:20:30.012Z,19.87
2018-03-31T23:22:56.471Z,20.27
2018-03-31T23:25:22.880Z,20.30
2018-03-31T23:27:49.272Z,19.45
2018-03-31T23:30:15.775Z,20.75
2018-03-31T23:32:42.188Z,21.02
2018-03-31T23:35:08.648Z,19.80
2018-03-31T23:37:35.076Z,21.00
2018-03-31T23:40:01.525Z,22.00
2018-03-31T23:42:27.952Z,22.20
2018-03-31T23:44:54.335Z,24.30
2018-03-31T23:47:20.757Z,22.48
2018-03-31T23:49:47.248Z,22.67
2018-03-31T23:52:13.684Z,21.42
2018-03-31T23:54:40.093Z,20.62
2018-03-31T23:57:06.582Z,20.02
2018-03-31T23:59:32.976Z,20.30
